Kingsville Naval Air Station
KNQI : now visible

Airfield :











YOU CAN JOIN US ON...

 
LOGIN :

Register | Disclaimer

   EN    FR    IT 

 









Legend :    VFR   Marginal VFR   IFR   Intensive IFR   Very Intensive IFR
Visi :
Ceiling :
>= 8 km
>= 3000ft
5 to 8 km
1000 to 3000 ft
1500m to 5 km
500 to 1000 ft
800 to 1500m
200 to 500 ft
< 800m
< 200 ft
Symbols :   Thunderstorms  Fog  Heavy snow  Heavy precipitations  Wind > 20 kt






- Airport Elevation : 50 ft


KNQI - Kingsville Naval Air Station

CURRENT METAR :
  • 100556Z AUTO 10004KT 10SM FEW014 23/19 A2989 RMK AO2 SLP118 60000 T02280194 10278 20228 403500217 50002 $

EXPIRED METARs :
  • 100544Z AUTO 06006KT 10SM SCT017 23/19 A2988 RMK AO2 T02280194 $
  • 100456Z AUTO 04007KT 10SM OVC017 23/19 A2989 RMK AO2 RAE0358 SLP119 P0000 T02330194 $
  • 100424Z 03012G23KT 8SM SCT012 BKN030 OVC048 24/21 A2987 RMK AO2 RAE0358 P0000 T02440206 $
  • 100356Z 03011G19KT 9SM -RA SCT009 BKN015 OVC035 26/23 A2988 RMK AO2 SLP116 SVR T2 SET P0000 T02560233 $

TAF AMD TAF KNQI
Valid from the 10 at 04:00 until the 10 at 23:00 UTC


1004/1023 03012KT 9999 VCSH SCT010 BKN030 OVC055 611509 QNH2985INS
TEMPO 1004/1008 6000 -RA BR BKN009 BKN015 OVC030
FM100800 02010KT 9999 VCSH BKN006 OVC012 611559 QNH2985INS
FM101400 03010KT 9999 BKN010 OVC025 611608 QNH2996INS
FM101900 06014G20KT 9999 BKN015 OVC030 600000 QNH2984INS AUTOMATED SENSOR METWATCH 1005 TIL 1012 T20/1012Z T24/1020Z AMD 0415 FN20042



MET'MAP, your aeronautical weather chart ! - Copyright ORBIFLY December 2007 - Disclaimer

ORBIFLY MET'MAP TEAM :

Programming & Development : Alexandra Zaïnal
Concept & original design : Baudouin d'Aumeries
Assistance for programming : Marc-Olivier Méhu
Technical & hardware support : Manuel Goepfert

Contact : metmap@orbifly.com




SOURCES & CREDITS :

   NOAA       Earth
Advisory